createdAt,value
2023-05-24T00:08:13.701Z,5
2023-05-24T00:12:48.116Z,5
2023-05-24T00:14:29.256Z,5
2023-05-24T00:19:01.233Z,5
2023-05-24T00:34:20.583Z,7
2023-05-24T00:43:39.254Z,7
2023-05-24T00:48:24.133Z,6
2023-05-24T00:49:46.000Z,7
2023-05-24T00:50:53.923Z,7
2023-05-24T00:52:01.819Z,8
2023-05-24T00:53:39.349Z,8
2023-05-24T00:55:18.841Z,8
2023-05-24T00:56:29.745Z,7
2023-05-24T00:57:46.654Z,7
2023-05-24T00:58:53.605Z,6
2023-05-24T01:00:02.896Z,7
2023-05-24T01:01:10.182Z,8
2023-05-24T01:02:17.489Z,8
2023-05-24T01:03:24.919Z,8
2023-05-24T01:04:34.512Z,8
2023-05-24T01:05:41.762Z,8
2023-05-24T01:06:48.862Z,7
2023-05-24T01:08:08.694Z,7
2023-05-24T01:09:18.753Z,8
2023-05-24T01:10:30.839Z,9
2023-05-24T01:11:44.400Z,8
2023-05-24T01:13:02.270Z,7
2023-05-24T01:14:13.280Z,9
2023-05-24T01:15:30.454Z,8
2023-05-24T01:16:46.067Z,8
2023-05-24T01:17:58.324Z,8
2023-05-24T01:19:09.072Z,8
2023-05-24T01:20:21.653Z,8
2023-05-24T01:21:29.681Z,8
2023-05-24T01:22:46.894Z,8
2023-05-24T01:24:04.906Z,8
2023-05-24T01:25:16.962Z,9
2023-05-24T01:26:29.045Z,7
2023-05-24T01:27:41.113Z,8
2023-05-24T01:28:48.866Z,9
2023-05-24T01:29:55.841Z,9
2023-05-24T01:31:03.000Z,8
2023-05-24T01:32:10.072Z,7
2023-05-24T01:33:17.113Z,9
2023-05-24T01:34:24.567Z,9
2023-05-24T01:35:31.659Z,8
2023-05-24T01:36:39.131Z,7
2023-05-24T01:37:46.934Z,9
2023-05-24T01:38:55.528Z,9
2023-05-24T01:40:02.951Z,9
2023-05-24T01:41:13.233Z,8
2023-05-24T01:42:30.379Z,9
2023-05-24T01:43:40.363Z,9
2023-05-24T01:44:47.422Z,8
2023-05-24T01:46:04.550Z,9
2023-05-24T01:47:21.802Z,8
2023-05-24T01:48:28.835Z,8
2023-05-24T01:49:47.036Z,8
2023-05-24T01:50:54.576Z,9
2023-05-24T01:52:02.313Z,8
2023-05-24T01:53:10.237Z,10
2023-05-24T01:54:17.329Z,9
2023-05-24T01:55:24.965Z,8
2023-05-24T01:56:31.979Z,9
2023-05-24T01:57:40.277Z,9
2023-05-24T01:58:47.347Z,9
2023-05-24T01:59:54.988Z,9
2023-05-24T02:01:02.630Z,8
2023-05-24T02:02:10.524Z,9
2023-05-24T02:03:17.780Z,9
2023-05-24T02:04:24.912Z,9
2023-05-24T02:05:32.193Z,9
2023-05-24T02:06:39.503Z,9
2023-05-24T02:07:47.343Z,10
2023-05-24T02:08:54.892Z,8
2023-05-24T02:10:02.693Z,9
2023-05-24T02:11:11.017Z,10
2023-05-24T02:12:18.254Z,9
2023-05-24T02:13:25.811Z,9
2023-05-24T02:14:33.844Z,9
2023-05-24T02:15:42.098Z,9
2023-05-24T02:16:49.259Z,9
2023-05-24T02:17:56.940Z,9
2023-05-24T02:19:03.952Z,9
2023-05-24T02:20:11.210Z,10
2023-05-24T02:21:20.902Z,9
2023-05-24T02:22:27.900Z,9
2023-05-24T02:23:34.999Z,9
2023-05-24T02:24:42.823Z,10
2023-05-24T02:25:50.043Z,9
2023-05-24T02:26:57.760Z,9
2023-05-24T02:28:05.650Z,9
2023-05-24T02:29:12.642Z,10
2023-05-24T02:30:20.604Z,9
2023-05-24T02:31:30.871Z,10
2023-05-24T02:32:38.724Z,10
2023-05-24T02:33:48.602Z,9
2023-05-24T02:34:56.527Z,10
2023-05-24T02:36:04.058Z,11
2023-05-24T02:37:12.023Z,11
2023-05-24T02:38:20.021Z,10
2023-05-24T02:39:27.041Z,10
2023-05-24T02:40:34.333Z,12
2023-05-24T02:41:41.270Z,11
2023-05-24T02:42:49.056Z,11
2023-05-24T02:43:56.147Z,10
2023-05-24T02:45:03.309Z,10
2023-05-24T02:46:10.713Z,11
2023-05-24T02:47:20.203Z,11
2023-05-24T02:48:27.657Z,12
2023-05-24T02:49:35.341Z,11
2023-05-24T02:50:42.791Z,11
2023-05-24T02:51:52.113Z,11
2023-05-24T02:53:02.038Z,11
2023-05-24T02:54:09.097Z,11
2023-05-24T02:55:16.166Z,11
2023-05-24T02:56:23.160Z,11
2023-05-24T02:57:33.663Z,12
2023-05-24T02:58:43.290Z,11
2023-05-24T02:59:50.416Z,10
2023-05-24T03:00:57.427Z,11
2023-05-24T03:02:07.131Z,12
2023-05-24T03:03:14.182Z,11
2023-05-24T03:04:24.128Z,11
2023-05-24T03:05:31.427Z,12
2023-05-24T03:06:39.460Z,12
2023-05-24T03:07:46.494Z,11
2023-05-24T03:08:54.183Z,12
2023-05-24T03:10:04.189Z,11
2023-05-24T03:11:14.140Z,11
2023-05-24T03:12:21.938Z,11
2023-05-24T03:13:31.863Z,12
2023-05-24T03:14:38.905Z,10
2023-05-24T03:15:48.988Z,9
2023-05-24T03:16:55.998Z,10
2023-05-24T03:18:03.178Z,10
2023-05-24T03:19:10.282Z,8
2023-05-24T03:20:17.116Z,8
2023-05-24T03:21:27.202Z,8
2023-05-24T03:22:34.272Z,8
2023-05-24T03:23:42.155Z,9
2023-05-24T03:24:49.204Z,7
2023-05-24T03:26:00.266Z,9
2023-05-24T03:27:08.472Z,8
2023-05-24T03:28:20.072Z,9
2023-05-24T03:29:27.137Z,8
2023-05-24T03:30:37.120Z,9
2023-05-24T03:31:47.044Z,8
2023-05-24T03:32:54.095Z,8
2023-05-24T03:34:01.086Z,7
2023-05-24T03:35:08.735Z,9
2023-05-24T03:36:15.759Z,7
2023-05-24T03:37:25.491Z,6
2023-05-24T03:38:32.473Z,7
2023-05-24T03:39:39.767Z,6
2023-05-24T03:40:47.038Z,4
2023-05-24T03:41:54.146Z,4
2023-05-24T03:43:03.695Z,4
2023-05-24T03:44:08.787Z,4
2023-05-24T03:45:21.624Z,3
2023-05-24T03:46:23.500Z,3
2023-05-24T03:47:31.024Z,3
2023-05-24T03:48:38.947Z,4
2023-05-24T03:49:49.014Z,3
2023-05-24T03:50:59.076Z,3
2023-05-24T03:52:08.982Z,3
2023-05-24T03:53:16.029Z,3
2023-05-24T03:54:23.541Z,3
2023-05-24T03:55:33.523Z,3
2023-05-24T03:56:41.091Z,4
2023-05-24T03:57:48.000Z,3
2023-05-24T03:58:55.403Z,4
2023-05-24T04:00:05.132Z,4
2023-05-24T04:01:22.116Z,3
2023-05-24T04:02:20.744Z,3
2023-05-24T04:03:28.293Z,3
2023-05-24T04:04:35.893Z,3
2023-05-24T04:05:43.051Z,3
2023-05-24T04:06:50.003Z,3
2023-05-24T04:07:57.093Z,3
2023-05-24T04:09:04.061Z,2
2023-05-24T04:10:11.341Z,2
2023-05-24T04:11:21.329Z,2
2023-05-24T04:12:28.218Z,2
2023-05-24T04:13:35.377Z,3
2023-05-24T04:14:42.478Z,2
2023-05-24T04:15:49.772Z,2
2023-05-24T04:16:57.141Z,2
2023-05-24T04:18:04.848Z,2
2023-05-24T04:19:13.733Z,1
2023-05-24T04:20:20.747Z,2
2023-05-24T04:21:30.279Z,2
2023-05-24T04:22:37.393Z,1
2023-05-24T04:23:44.996Z,1
2023-05-24T04:24:52.214Z,2
2023-05-24T04:25:59.236Z,2
2023-05-24T04:27:06.501Z,2
2023-05-24T04:28:13.507Z,1
2023-05-24T04:29:21.095Z,1
2023-05-24T04:30:28.079Z,2
2023-05-24T04:31:35.061Z,2
2023-05-24T04:32:44.677Z,1
2023-05-24T04:33:51.696Z,1
2023-05-24T04:34:58.704Z,1
2023-05-24T04:36:06.363Z,1
2023-05-24T04:37:13.368Z,1
2023-05-24T04:38:21.938Z,1
2023-05-24T04:39:28.306Z,2
2023-05-24T04:40:35.674Z,2
2023-05-24T04:41:45.252Z,2
2023-05-24T04:42:54.929Z,1
2023-05-24T04:44:04.919Z,1
2023-05-24T04:45:12.005Z,1
2023-05-24T04:46:19.062Z,2
2023-05-24T04:47:26.505Z,1
2023-05-24T04:48:33.566Z,1
2023-05-24T04:49:43.299Z,1
2023-05-24T04:50:50.253Z,1
2023-05-24T04:51:57.181Z,1
2023-05-24T04:53:04.193Z,1
2023-05-24T04:54:11.189Z,1
2023-05-24T04:55:18.223Z,1
2023-05-24T04:56:25.404Z,1
2023-05-24T04:57:32.372Z,1
2023-05-24T04:58:39.526Z,1
2023-05-24T04:59:46.355Z,1
2023-05-24T05:00:56.345Z,1
2023-05-24T05:02:03.408Z,1
2023-05-24T05:03:20.109Z,1
2023-05-24T05:04:27.880Z,1
2023-05-24T05:05:34.979Z,1
2023-05-24T05:06:42.662Z,1
2023-05-24T05:07:49.733Z,1
2023-05-24T05:08:57.557Z,1
2023-05-24T05:10:05.240Z,1
2023-05-24T05:11:12.819Z,1
2023-05-24T05:12:22.656Z,1
2023-05-24T05:13:30.281Z,1
2023-05-24T05:14:37.848Z,1
2023-05-24T05:15:47.632Z,1
2023-05-24T05:16:54.679Z,1
2023-05-24T05:18:04.329Z,1
2023-05-24T05:19:14.306Z,1
2023-05-24T05:20:23.473Z,1
2023-05-24T05:21:30.505Z,1
2023-05-24T05:22:38.453Z,1
2023-05-24T05:23:48.969Z,1
2023-05-24T05:24:56.260Z,1
2023-05-24T05:26:03.266Z,1
2023-05-24T05:27:10.236Z,1
2023-05-24T05:28:17.411Z,1
2023-05-24T05:29:24.733Z,1
2023-05-24T05:30:31.618Z,1
2023-05-24T05:31:39.315Z,1
2023-05-24T05:32:46.347Z,1
2023-05-24T05:33:53.921Z,1
2023-05-24T05:35:01.372Z,1
2023-05-24T05:36:13.654Z,1
2023-05-24T05:37:20.611Z,1
2023-05-24T05:38:27.602Z,1
2023-05-24T05:39:34.578Z,1
2023-05-24T05:40:42.102Z,1
2023-05-24T05:41:53.308Z,1
2023-05-24T05:43:00.374Z,1
2023-05-24T05:44:08.337Z,2
2023-05-24T05:45:15.957Z,2
2023-05-24T05:46:22.995Z,2
2023-05-24T05:47:29.980Z,1
2023-05-24T05:48:38.735Z,1
2023-05-24T05:49:46.266Z,1
2023-05-24T05:50:53.267Z,2
2023-05-24T05:52:00.558Z,1
2023-05-24T05:53:08.261Z,1
2023-05-24T05:54:17.666Z,1
2023-05-24T05:55:24.930Z,1
2023-05-24T05:56:31.977Z,1
2023-05-24T05:57:38.954Z,1
2023-05-24T05:58:46.007Z,1
2023-05-24T05:59:53.076Z,2
2023-05-24T06:01:00.346Z,1
2023-05-24T06:02:07.507Z,2
2023-05-24T06:03:14.739Z,1
2023-05-24T06:04:21.906Z,2
2023-05-24T06:05:34.258Z,1
2023-05-24T06:06:42.768Z,1
2023-05-24T06:07:51.230Z,1
2023-05-24T06:08:59.479Z,1
2023-05-24T06:10:07.589Z,1
2023-05-24T06:11:14.856Z,2
2023-05-24T06:12:22.488Z,1
2023-05-24T06:13:29.501Z,2
2023-05-24T06:14:37.213Z,1
2023-05-24T06:15:47.325Z,1
2023-05-24T06:16:54.399Z,2
2023-05-24T06:18:04.076Z,2
2023-05-24T06:19:11.176Z,2
2023-05-24T06:20:18.278Z,2
2023-05-24T06:21:25.305Z,2
2023-05-24T06:22:35.005Z,2
2023-05-24T06:23:42.294Z,2
2023-05-24T06:24:49.675Z,3
2023-05-24T06:25:56.714Z,3
2023-05-24T06:27:05.375Z,2
2023-05-24T06:28:13.826Z,2
2023-05-24T06:29:21.526Z,2
2023-05-24T06:30:31.706Z,2
2023-05-24T06:31:38.630Z,3
2023-05-24T06:35:25.991Z,4
2023-05-24T06:39:23.266Z,5
2023-05-24T06:40:35.994Z,6
2023-05-24T06:41:46.050Z,6
2023-05-24T06:43:10.398Z,6
2023-05-24T06:44:48.377Z,6
2023-05-24T06:45:55.208Z,6
2023-05-24T06:47:06.989Z,5
2023-05-24T06:48:13.940Z,5
2023-05-24T06:49:20.659Z,5
2023-05-24T06:50:27.479Z,5
2023-05-24T06:51:34.329Z,4
2023-05-24T06:52:41.147Z,5
2023-05-24T06:53:47.932Z,4
2023-05-24T06:54:55.094Z,4
2023-05-24T06:56:01.598Z,4
2023-05-24T06:57:08.520Z,4
2023-05-24T06:58:15.372Z,4
2023-05-24T06:59:22.182Z,3
2023-05-24T07:00:29.021Z,3
2023-05-24T07:01:35.928Z,3
2023-05-24T07:02:42.777Z,3
2023-05-24T07:03:49.540Z,4
2023-05-24T07:04:56.604Z,4
2023-05-24T07:06:03.367Z,4
2023-05-24T07:07:10.212Z,5
2023-05-24T07:08:17.180Z,5
2023-05-24T07:09:23.970Z,5
2023-05-24T07:10:30.833Z,4
2023-05-24T07:11:37.627Z,4
2023-05-24T07:12:44.385Z,4
2023-05-24T07:13:51.265Z,5
2023-05-24T07:14:58.068Z,5
2023-05-24T07:16:04.870Z,4
2023-05-24T07:17:11.708Z,5
2023-05-24T07:18:18.579Z,6
2023-05-24T07:19:25.500Z,4
2023-05-24T07:20:32.356Z,5
2023-05-24T07:21:39.252Z,5
2023-05-24T07:22:46.103Z,5
2023-05-24T07:23:53.057Z,4
2023-05-24T07:25:00.005Z,5
2023-05-24T07:26:07.008Z,5
2023-05-24T07:27:13.763Z,5
2023-05-24T07:28:20.691Z,5
2023-05-24T07:29:27.544Z,5
2023-05-24T07:30:34.311Z,5
2023-05-24T07:31:41.310Z,5
2023-05-24T07:32:48.120Z,6
2023-05-24T07:33:54.767Z,5
2023-05-24T07:35:01.560Z,4
2023-05-24T07:36:08.604Z,4
2023-05-24T07:37:15.440Z,4
2023-05-24T07:38:22.326Z,3
2023-05-24T07:39:29.153Z,4
2023-05-24T07:40:35.995Z,3
2023-05-24T07:41:42.784Z,3
2023-05-24T07:42:49.582Z,2
2023-05-24T07:43:56.449Z,2
2023-05-24T07:45:03.426Z,2
2023-05-24T07:46:10.618Z,2
2023-05-24T07:47:17.283Z,2
2023-05-24T07:48:24.115Z,1
2023-05-24T07:49:30.932Z,1
2023-05-24T07:50:37.907Z,1
2023-05-24T07:51:44.769Z,1
2023-05-24T07:52:51.657Z,1
2023-05-24T07:54:01.317Z,1
2023-05-24T07:55:08.243Z,1
2023-05-24T07:56:15.061Z,1
2023-05-24T07:57:21.989Z,1
2023-05-24T07:58:28.717Z,1
2023-05-24T07:59:35.542Z,1
2023-05-24T08:00:42.350Z,1
2023-05-24T08:01:49.197Z,1
2023-05-24T08:02:56.096Z,1
2023-05-24T08:04:02.987Z,1
2023-05-24T08:05:09.745Z,1
2023-05-24T08:06:16.498Z,1
2023-05-24T08:07:23.381Z,1
2023-05-24T08:08:30.128Z,1
2023-05-24T08:09:36.942Z,1
2023-05-24T08:10:43.763Z,1
2023-05-24T08:11:50.524Z,1
2023-05-24T08:12:57.438Z,1
2023-05-24T08:14:04.196Z,1
2023-05-24T08:15:11.044Z,1
2023-05-24T08:16:17.812Z,1
2023-05-24T08:17:24.754Z,1
2023-05-24T08:18:31.564Z,1
2023-05-24T08:19:38.432Z,1
2023-05-24T08:20:45.254Z,1
2023-05-24T08:21:51.979Z,1
2023-05-24T08:22:58.947Z,1
2023-05-24T08:24:07.582Z,1
2023-05-24T08:25:12.655Z,1
2023-05-24T08:26:21.517Z,1
2023-05-24T08:27:28.312Z,1
2023-05-24T08:28:51.819Z,1
2023-05-24T08:29:58.711Z,2
2023-05-24T08:31:05.831Z,2
2023-05-24T08:32:12.840Z,2
2023-05-24T08:33:19.541Z,2
2023-05-24T08:34:26.365Z,2
2023-05-24T08:35:33.245Z,2
2023-05-24T08:36:40.220Z,2
2023-05-24T08:37:47.232Z,3
2023-05-24T08:39:01.038Z,4
2023-05-24T08:40:17.578Z,5
2023-05-24T08:41:24.446Z,5
2023-05-24T08:42:31.235Z,5
2023-05-24T08:43:40.074Z,5
2023-05-24T08:44:47.051Z,6
2023-05-24T08:45:56.609Z,5
2023-05-24T08:47:08.315Z,6
2023-05-24T08:48:16.680Z,4
2023-05-24T08:49:28.877Z,4
2023-05-24T08:50:57.664Z,5
2023-05-24T08:52:04.488Z,4
2023-05-24T08:53:11.298Z,4
2023-05-24T08:54:18.053Z,4
2023-05-24T08:55:24.873Z,5
2023-05-24T08:56:31.725Z,5
2023-05-24T08:57:38.777Z,5
2023-05-24T08:59:01.274Z,4
2023-05-24T09:00:08.248Z,5
2023-05-24T09:01:15.225Z,5
2023-05-24T09:02:22.077Z,5
2023-05-24T09:03:28.910Z,5
2023-05-24T09:04:35.669Z,5
2023-05-24T09:05:42.841Z,6
2023-05-24T09:06:49.398Z,5
2023-05-24T09:08:01.990Z,5
2023-05-24T09:09:17.070Z,5
2023-05-24T09:10:23.815Z,6
2023-05-24T09:11:30.618Z,5
2023-05-24T09:12:38.906Z,4
2023-05-24T09:13:49.218Z,4
2023-05-24T09:14:56.117Z,4
2023-05-24T09:16:02.934Z,4
2023-05-24T09:17:09.734Z,4
2023-05-24T09:18:16.565Z,4
2023-05-24T09:19:23.327Z,4
2023-05-24T09:20:30.168Z,4
2023-05-24T09:21:36.948Z,3
2023-05-24T09:22:43.780Z,4
2023-05-24T09:23:53.380Z,4
2023-05-24T09:25:00.209Z,4
2023-05-24T09:26:07.244Z,3
2023-05-24T09:27:14.096Z,3
2023-05-24T09:28:23.643Z,3
2023-05-24T09:29:30.463Z,3
2023-05-24T09:30:40.501Z,3
2023-05-24T09:31:47.263Z,3
2023-05-24T09:32:54.023Z,3
2023-05-24T09:34:00.873Z,3
2023-05-24T09:35:07.665Z,3
2023-05-24T09:36:14.488Z,3
2023-05-24T09:37:23.584Z,3
2023-05-24T09:38:28.112Z,3
2023-05-24T09:39:35.032Z,3
2023-05-24T09:40:41.848Z,3
2023-05-24T09:41:48.687Z,3
2023-05-24T09:42:55.352Z,3
2023-05-24T09:44:07.220Z,4
2023-05-24T09:45:14.138Z,3
2023-05-24T09:46:21.161Z,3
2023-05-24T09:47:27.967Z,3
2023-05-24T09:48:34.688Z,3
2023-05-24T09:49:41.484Z,3
2023-05-24T09:50:48.504Z,3
2023-05-24T09:52:05.432Z,4
2023-05-24T09:53:12.182Z,4
2023-05-24T09:54:21.658Z,4
2023-05-24T09:55:31.225Z,4
2023-05-24T09:56:40.897Z,4
2023-05-24T09:57:47.678Z,4
2023-05-24T09:58:54.515Z,4
2023-05-24T10:00:01.319Z,5
2023-05-24T10:01:08.396Z,4
2023-05-24T10:02:15.145Z,4
2023-05-24T10:03:22.081Z,4
2023-05-24T10:04:28.763Z,5
2023-05-24T10:05:35.641Z,4
2023-05-24T10:06:42.413Z,4
2023-05-24T10:07:49.209Z,4
2023-05-24T10:08:56.184Z,5
2023-05-24T10:10:04.175Z,4
2023-05-24T10:11:10.027Z,4
2023-05-24T10:12:16.806Z,4
2023-05-24T10:13:23.552Z,4
2023-05-24T10:14:30.400Z,5
2023-05-24T10:15:40.169Z,4
2023-05-24T10:16:46.979Z,3
2023-05-24T10:17:53.760Z,3
2023-05-24T10:19:00.553Z,4
2023-05-24T10:20:07.465Z,3
2023-05-24T10:21:14.447Z,3
2023-05-24T10:22:21.236Z,3
2023-05-24T10:23:28.054Z,3
2023-05-24T10:24:34.879Z,3
2023-05-24T10:25:41.780Z,3
2023-05-24T10:26:48.581Z,3
2023-05-24T10:27:55.433Z,3
2023-05-24T10:29:02.289Z,3
2023-05-24T10:30:10.160Z,3
2023-05-24T10:31:23.915Z,3
2023-05-24T10:32:35.760Z,3
2023-05-24T10:33:42.504Z,3
2023-05-24T10:34:49.361Z,3
2023-05-24T10:35:56.251Z,3
2023-05-24T10:37:03.020Z,3
2023-05-24T10:38:09.811Z,4
2023-05-24T10:39:16.592Z,3
2023-05-24T10:40:23.486Z,3
2023-05-24T10:41:30.330Z,2
2023-05-24T10:42:42.225Z,3
2023-05-24T10:44:01.220Z,2
2023-05-24T10:44:55.786Z,2
2023-05-24T10:46:02.617Z,3
2023-05-24T10:47:09.405Z,3
2023-05-24T10:48:18.958Z,3
2023-05-24T10:49:30.803Z,3
2023-05-24T10:50:37.913Z,3
2023-05-24T10:51:44.343Z,3
2023-05-24T10:52:51.101Z,3
2023-05-24T10:53:57.885Z,4
2023-05-24T10:55:14.900Z,4
2023-05-24T10:56:24.607Z,4
2023-05-24T10:57:31.354Z,4
2023-05-24T10:58:38.265Z,4
2023-05-24T10:59:52.997Z,4
2023-05-24T11:00:59.737Z,4
2023-05-24T11:02:06.532Z,4
2023-05-24T11:03:13.360Z,4
2023-05-24T11:04:20.200Z,4
2023-05-24T11:05:27.020Z,4
2023-05-24T11:06:38.914Z,3
2023-05-24T11:07:53.339Z,3
2023-05-24T11:09:02.906Z,3
2023-05-24T11:10:09.772Z,3
2023-05-24T11:11:25.903Z,3
2023-05-24T11:12:25.843Z,3
2023-05-24T11:13:32.631Z,3
2023-05-24T11:14:39.458Z,3
2023-05-24T11:15:52.128Z,3
2023-05-24T11:16:58.882Z,3
2023-05-24T11:18:05.709Z,3
2023-05-24T11:19:12.613Z,3
2023-05-24T11:20:24.595Z,3
2023-05-24T11:21:31.358Z,2
2023-05-24T11:22:38.305Z,3
2023-05-24T11:23:45.013Z,3
2023-05-24T11:24:51.868Z,3
2023-05-24T11:25:58.752Z,3
2023-05-24T11:27:05.505Z,2
2023-05-24T11:28:12.279Z,3
2023-05-24T11:29:19.167Z,6
2023-05-24T11:30:26.280Z,5
2023-05-24T11:31:33.237Z,5
2023-05-24T11:32:39.973Z,5
2023-05-24T11:33:46.745Z,6
2023-05-24T11:34:53.494Z,6
2023-05-24T11:36:00.328Z,6
2023-05-24T11:37:07.155Z,6
2023-05-24T11:38:14.107Z,6
2023-05-24T11:39:20.724Z,6
2023-05-24T11:40:27.472Z,5
2023-05-24T11:41:34.295Z,5
2023-05-24T11:42:41.122Z,4
2023-05-24T11:43:47.925Z,4
2023-05-24T11:44:54.775Z,4
2023-05-24T11:46:01.687Z,5
2023-05-24T11:47:08.625Z,4
2023-05-24T11:48:15.387Z,4
2023-05-24T11:49:22.222Z,4
2023-05-24T11:50:30.928Z,4
2023-05-24T11:51:35.992Z,3
2023-05-24T11:52:42.838Z,4
2023-05-24T11:53:51.303Z,3
2023-05-24T11:54:56.406Z,3
2023-05-24T11:56:03.166Z,3
2023-05-24T11:57:09.982Z,3
2023-05-24T11:58:16.836Z,3
2023-05-24T11:59:26.549Z,3
2023-05-24T12:00:33.280Z,2
2023-05-24T12:01:40.051Z,3
2023-05-24T12:02:47.039Z,2
2023-05-24T12:03:53.898Z,2
2023-05-24T12:05:00.712Z,2
2023-05-24T12:06:10.115Z,3
2023-05-24T12:07:16.914Z,3
2023-05-24T12:08:23.692Z,3
2023-05-24T12:09:30.673Z,2
2023-05-24T12:10:37.445Z,3
2023-05-24T12:11:47.121Z,3
2023-05-24T12:12:56.825Z,3
2023-05-24T12:14:03.598Z,3
2023-05-24T12:15:15.703Z,3
2023-05-24T12:16:22.530Z,3
2023-05-24T12:17:29.406Z,3
2023-05-24T12:18:36.234Z,4
2023-05-24T12:19:44.290Z,4
2023-05-24T12:20:54.067Z,4
2023-05-24T12:22:00.956Z,3
2023-05-24T12:23:11.098Z,3
2023-05-24T12:24:18.113Z,4
2023-05-24T12:25:24.912Z,3
2023-05-24T12:26:32.597Z,3
2023-05-24T12:27:39.785Z,4
2023-05-24T12:28:46.255Z,4
2023-05-24T12:29:55.674Z,3
2023-05-24T12:31:02.530Z,4
2023-05-24T12:32:09.319Z,4
2023-05-24T12:33:16.059Z,4
2023-05-24T12:34:22.829Z,4
2023-05-24T12:35:29.697Z,4
2023-05-24T12:36:36.413Z,4
2023-05-24T12:37:43.242Z,4
2023-05-24T12:38:50.176Z,4
2023-05-24T12:39:56.976Z,4
2023-05-24T12:41:12.702Z,4
2023-05-24T12:42:10.501Z,4
2023-05-24T12:43:17.396Z,4
2023-05-24T12:44:24.140Z,4
2023-05-24T12:45:33.981Z,5
2023-05-24T12:46:40.886Z,4
2023-05-24T12:47:47.780Z,5
2023-05-24T12:48:54.389Z,5
2023-05-24T12:50:01.229Z,4
2023-05-24T12:51:08.175Z,4
2023-05-24T12:52:14.989Z,4
2023-05-24T12:53:21.722Z,4
2023-05-24T12:54:28.690Z,4
2023-05-24T12:55:35.506Z,4
2023-05-24T12:56:42.353Z,3
2023-05-24T12:57:49.097Z,4
2023-05-24T12:58:58.612Z,4
2023-05-24T13:00:05.441Z,3
2023-05-24T13:01:12.580Z,3
2023-05-24T13:02:19.335Z,3
2023-05-24T13:03:26.281Z,3
2023-05-24T13:04:33.002Z,4
2023-05-24T13:05:39.854Z,3
2023-05-24T13:06:46.554Z,3
2023-05-24T13:07:53.372Z,3
2023-05-24T13:09:00.175Z,3
2023-05-24T13:10:07.016Z,3
2023-05-24T13:11:13.994Z,3
2023-05-24T13:12:21.036Z,3
2023-05-24T13:13:27.830Z,3
2023-05-24T13:14:34.647Z,3
2023-05-24T13:15:41.395Z,4
2023-05-24T13:16:48.473Z,4
2023-05-24T13:17:55.233Z,4
2023-05-24T13:19:02.028Z,4
2023-05-24T13:20:08.763Z,4
2023-05-24T13:21:15.506Z,4
2023-05-24T13:22:22.331Z,4
2023-05-24T13:23:29.127Z,4
2023-05-24T13:24:38.962Z,4
2023-05-24T13:25:45.744Z,5
2023-05-24T13:26:54.783Z,5
2023-05-24T13:27:59.397Z,5
2023-05-24T13:30:13.030Z,5
2023-05-24T13:31:19.855Z,5
2023-05-24T13:32:26.642Z,4
2023-05-24T13:33:33.485Z,5
2023-05-24T13:34:40.280Z,5
2023-05-24T13:35:47.006Z,5
2023-05-24T13:36:53.835Z,5
2023-05-24T13:38:00.628Z,5
2023-05-24T13:40:14.357Z,4
2023-05-24T13:41:21.242Z,5
2023-05-24T13:42:28.104Z,5
2023-05-24T13:43:34.949Z,4
2023-05-24T13:44:41.700Z,4
2023-05-24T13:45:48.472Z,5
2023-05-24T13:46:55.384Z,4
2023-05-24T13:48:02.213Z,5
2023-05-24T13:49:08.998Z,5
2023-05-24T13:50:15.806Z,5
2023-05-24T13:51:22.601Z,5
2023-05-24T13:52:29.333Z,5
2023-05-24T13:53:36.109Z,6
2023-05-24T13:54:43.002Z,5
2023-05-24T13:55:49.772Z,5
2023-05-24T13:56:56.584Z,5
2023-05-24T13:58:03.407Z,5
2023-05-24T13:59:10.195Z,5
2023-05-24T14:00:17.107Z,5
2023-05-24T14:01:24.022Z,5
2023-05-24T14:02:30.873Z,5
2023-05-24T14:03:37.578Z,5
2023-05-24T14:04:44.411Z,5
2023-05-24T14:05:51.195Z,5
2023-05-24T14:06:57.931Z,5
2023-05-24T14:08:04.742Z,6
2023-05-24T14:09:11.547Z,5
2023-05-24T14:10:20.868Z,4
2023-05-24T14:11:25.190Z,5
2023-05-24T14:12:32.037Z,6
2023-05-24T14:15:52.554Z,5
2023-05-24T14:16:59.632Z,6
2023-05-24T14:18:06.164Z,5
2023-05-24T14:19:12.965Z,6
2023-05-24T14:20:19.862Z,6
2023-05-24T14:21:26.993Z,5
2023-05-24T14:22:33.633Z,6
2023-05-24T14:23:40.503Z,6
2023-05-24T14:24:47.373Z,6
2023-05-24T14:25:54.202Z,6
2023-05-24T14:27:01.079Z,6
2023-05-24T14:28:07.961Z,7
2023-05-24T14:29:14.712Z,10
2023-05-24T14:30:21.598Z,7
2023-05-24T14:31:31.289Z,7
2023-05-24T14:32:38.146Z,6
2023-05-24T14:33:44.998Z,5
2023-05-24T14:34:53.383Z,6
2023-05-24T14:35:58.606Z,9
2023-05-24T14:37:05.461Z,17
2023-05-24T14:38:12.352Z,8
2023-05-24T14:39:19.175Z,7
2023-05-24T14:40:25.998Z,21
2023-05-24T14:41:32.760Z,49
2023-05-24T14:42:39.595Z,51
2023-05-24T14:43:46.428Z,36
2023-05-24T14:44:53.262Z,44
2023-05-24T14:46:00.049Z,26
2023-05-24T14:47:06.802Z,23
2023-05-24T14:48:13.604Z,42
2023-05-24T14:49:20.356Z,41
2023-05-24T14:50:27.133Z,23
2023-05-24T14:51:33.913Z,8
2023-05-24T14:52:40.698Z,6
2023-05-24T14:53:47.580Z,49
2023-05-24T14:54:54.341Z,14
2023-05-24T14:56:01.099Z,32
2023-05-24T14:57:07.989Z,31
2023-05-24T14:58:14.789Z,33
2023-05-24T14:59:21.550Z,58
2023-05-24T15:00:28.634Z,37
2023-05-24T15:01:35.296Z,18
2023-05-24T15:02:42.214Z,15
2023-05-24T15:03:48.866Z,12
2023-05-24T15:04:55.781Z,9
2023-05-24T15:06:02.632Z,10
2023-05-24T15:07:09.453Z,9
2023-05-24T15:08:16.234Z,15
2023-05-24T15:09:23.073Z,9
2023-05-24T15:10:30.006Z,8
2023-05-24T15:11:36.793Z,8
2023-05-24T15:12:43.614Z,27
2023-05-24T15:13:50.358Z,8
2023-05-24T15:14:57.166Z,7
2023-05-24T15:16:03.981Z,8
2023-05-24T15:17:10.839Z,9
2023-05-24T15:18:17.616Z,9
2023-05-24T15:19:24.379Z,8
2023-05-24T15:20:31.166Z,7
2023-05-24T15:21:37.961Z,8
2023-05-24T15:22:44.745Z,9
2023-05-24T15:23:51.665Z,10
2023-05-24T15:24:58.419Z,16
2023-05-24T15:26:05.231Z,9
2023-05-24T15:27:12.020Z,8
2023-05-24T15:28:18.869Z,18
2023-05-24T15:29:25.671Z,8
2023-05-24T15:30:32.518Z,11
2023-05-24T15:31:39.510Z,14
2023-05-24T15:32:46.582Z,16
2023-05-24T15:33:53.260Z,12
2023-05-24T15:35:00.245Z,11
2023-05-24T15:36:07.044Z,10
2023-05-24T15:37:13.818Z,8
2023-05-24T15:38:20.590Z,7
2023-05-24T15:39:27.466Z,4
2023-05-24T15:40:34.212Z,4
2023-05-24T15:41:40.905Z,4
2023-05-24T15:42:47.712Z,4
2023-05-24T15:43:54.619Z,4
2023-05-24T15:45:01.760Z,5
2023-05-24T15:46:09.335Z,4
2023-05-24T15:47:16.082Z,5
2023-05-24T15:48:22.867Z,5
2023-05-24T15:49:29.667Z,5
2023-05-24T15:52:49.977Z,5
2023-05-24T15:53:56.836Z,5
2023-05-24T15:55:03.625Z,5
2023-05-24T15:56:13.142Z,5
2023-05-24T15:57:19.964Z,4
2023-05-24T15:58:26.745Z,4
2023-05-24T15:59:33.524Z,5
2023-05-24T16:00:40.418Z,4
2023-05-24T16:01:50.253Z,4
2023-05-24T16:02:57.112Z,5
2023-05-24T16:04:03.834Z,5
2023-05-24T16:05:10.591Z,5
2023-05-24T16:06:17.407Z,6
2023-05-24T16:07:24.222Z,5
2023-05-24T16:08:30.980Z,5
2023-05-24T16:09:37.763Z,5
2023-05-24T16:10:44.689Z,6
2023-05-24T16:11:51.430Z,9
2023-05-24T16:12:59.100Z,5
2023-05-24T16:14:05.983Z,5
2023-05-24T16:15:12.726Z,4
2023-05-24T16:16:19.582Z,4
2023-05-24T16:17:26.419Z,4
2023-05-24T16:18:33.184Z,4
2023-05-24T16:19:40.051Z,3
2023-05-24T16:20:50.122Z,3
2023-05-24T16:21:57.198Z,3
2023-05-24T16:23:04.324Z,3
2023-05-24T16:24:11.145Z,3
2023-05-24T16:25:17.906Z,3
2023-05-24T16:26:24.746Z,3
2023-05-24T16:27:31.525Z,3
2023-05-24T16:28:38.327Z,3
2023-05-24T16:29:45.123Z,3
2023-05-24T16:30:52.007Z,3
2023-05-24T16:31:58.868Z,3
2023-05-24T16:33:05.623Z,4
2023-05-24T16:34:12.495Z,4
2023-05-24T16:35:19.311Z,3
2023-05-24T16:36:26.178Z,3
2023-05-24T16:37:32.948Z,3
2023-05-24T16:38:39.705Z,3
2023-05-24T16:39:46.593Z,3
2023-05-24T16:40:53.398Z,3
2023-05-24T16:42:01.535Z,3
2023-05-24T16:43:07.012Z,2
2023-05-24T16:44:13.910Z,3
2023-05-24T16:45:20.773Z,3
2023-05-24T16:46:27.672Z,3
2023-05-24T16:47:34.557Z,3
2023-05-24T16:48:41.276Z,3
2023-05-24T16:49:48.152Z,3
2023-05-24T16:50:55.051Z,3
2023-05-24T16:52:01.794Z,3
2023-05-24T16:53:08.661Z,3
2023-05-24T16:54:15.462Z,3
2023-05-24T16:55:22.362Z,3
2023-05-24T16:56:29.119Z,3
2023-05-24T16:57:35.951Z,3
2023-05-24T16:58:42.806Z,2
2023-05-24T16:59:50.886Z,3
2023-05-24T17:00:56.574Z,3
2023-05-24T17:02:03.362Z,2
2023-05-24T17:03:11.343Z,3
2023-05-24T17:04:18.056Z,3
2023-05-24T17:05:24.895Z,3
2023-05-24T17:06:31.723Z,3
2023-05-24T17:07:38.499Z,3
2023-05-24T17:08:45.373Z,3
2023-05-24T17:09:52.314Z,3
2023-05-24T17:10:59.130Z,3
2023-05-24T17:12:05.861Z,3
2023-05-24T17:13:12.672Z,3
2023-05-24T17:14:19.499Z,3
2023-05-24T17:15:26.344Z,3
2023-05-24T17:16:33.269Z,3
2023-05-24T17:17:40.108Z,3
2023-05-24T17:18:46.872Z,3
2023-05-24T17:19:53.710Z,3
2023-05-24T17:21:00.625Z,3
2023-05-24T17:22:07.494Z,3
2023-05-24T17:23:14.294Z,3
2023-05-24T17:24:21.172Z,3
2023-05-24T17:25:28.038Z,3
2023-05-24T17:26:34.929Z,4
2023-05-24T17:27:41.815Z,7
2023-05-24T17:28:48.687Z,7
2023-05-24T17:29:55.508Z,7
2023-05-24T17:31:02.328Z,7
2023-05-24T17:32:09.287Z,6
2023-05-24T17:33:16.049Z,7